Time;durP1;ratioP1;P1;durP2;ratioP2;P2;SDS_P1;SDS_P2;PMS_P1;PMS_P2;Temp;Humidity;BMP_temperature;BMP_pressure;BME280_temperature;BME280_humidity;BME280_pressure;Samples;Min_cycle;Max_cycle;Signal;HPM_P1;HPM_P2
2021/09/29 00:01:45;;;;;;;5.67;4.73;;;12.70;99.90;;;;;;4879833;29;20467;-75
2021/09/29 00:04:12;;;;;;;5.67;5.10;;;12.70;99.90;;;;;;4879836;29;20505;-75
2021/09/29 00:06:39;;;;;;;5.47;4.97;;;12.80;99.90;;;;;;4880301;29;20704;-74
2021/09/29 00:09:07;;;;;;;5.80;4.80;;;12.80;99.90;;;;;;4879859;29;20467;-74
2021/09/29 00:11:33;;;;;;;5.83;5.27;;;12.80;99.90;;;;;;4879653;29;20989;-75
2021/09/29 00:14:00;;;;;;;5.17;4.70;;;12.80;99.90;;;;;;4879785;29;20518;-75
2021/09/29 00:16:27;;;;;;;5.23;4.80;;;12.80;99.90;;;;;;4879878;29;20474;-75
2021/09/29 00:18:54;;;;;;;6.23;5.70;;;12.80;99.90;;;;;;4879763;29;20494;-74
2021/09/29 00:21:20;;;;;;;4.83;4.33;;;12.80;99.90;;;;;;4879306;29;20483;-74
2021/09/29 00:23:48;;;;;;;5.90;5.40;;;12.80;99.90;;;;;;4879740;29;20492;-75
2021/09/29 00:26:16;;;;;;;7.40;5.53;;;12.80;99.90;;;;;;4879665;29;20483;-75
2021/09/29 00:28:43;;;;;;;7.30;5.70;;;12.80;99.90;;;;;;4879919;29;20467;-75
2021/09/29 00:31:23;;;;;;;5.80;4.93;;;12.80;99.90;;;;;;4879066;29;20475;-74
2021/09/29 00:33:57;;;;;;;5.47;4.97;;;12.80;99.90;;;;;;4879656;29;20534;-75
2021/09/29 00:36:24;;;;;;;5.67;5.17;;;12.70;99.90;;;;;;4879601;29;20470;-75
2021/09/29 00:38:51;;;;;;;6.03;5.37;;;12.70;99.90;;;;;;4879514;29;20487;-75
2021/09/29 00:41:19;;;;;;;5.73;5.23;;;12.70;99.90;;;;;;4878914;29;20472;-75
2021/09/29 00:43:46;;;;;;;5.93;5.33;;;12.70;99.90;;;;;;4879412;29;20495;-75
2021/09/29 00:46:12;;;;;;;5.27;4.77;;;12.70;99.90;;;;;;4879155;29;20490;-74
2021/09/29 00:48:39;;;;;;;5.90;5.30;;;12.70;99.90;;;;;;4879529;29;20468;-75
2021/09/29 00:51:06;;;;;;;4.93;4.50;;;12.70;99.90;;;;;;4878606;29;20478;-75
2021/09/29 00:53:33;;;;;;;5.47;4.73;;;12.70;99.90;;;;;;4879358;29;20487;-75
2021/09/29 00:56:00;;;;;;;5.50;5.00;;;12.70;99.90;;;;;;4879182;29;20467;-74
2021/09/29 00:58:28;;;;;;;5.50;4.80;;;12.60;99.90;;;;;;4879181;29;20471;-75
2021/09/29 01:00:54;;;;;;;5.93;5.17;;;12.60;99.90;;;;;;4878663;29;20978;-74
2021/09/29 01:03:22;;;;;;;5.67;5.17;;;12.60;99.90;;;;;;4949652;23;20503;-75
2021/09/29 01:05:51;;;;;;;5.77;5.17;;;12.50;99.90;;;;;;4885443;29;20475;-74
2021/09/29 01:08:24;;;;;;;9.97;5.77;;;12.50;99.90;;;;;;4879082;29;20467;-75
2021/09/29 01:10:57;;;;;;;6.00;5.40;;;12.50;99.90;;;;;;4878712;29;20463;-75
2021/09/29 01:13:30;;;;;;;8.17;5.60;;;12.50;99.90;;;;;;4878873;29;20468;-75
2021/09/29 01:16:01;;;;;;;6.63;5.93;;;12.50;99.90;;;;;;4879018;29;20959;-75
2021/09/29 01:18:33;;;;;;;6.63;6.03;;;12.50;99.90;;;;;;4878852;29;20464;-75
2021/09/29 01:21:03;;;;;;;6.80;6.13;;;12.50;99.90;;;;;;4878366;29;20471;-75
2021/09/29 01:23:45;;;;;;;6.90;6.20;;;12.50;99.90;;;;;;4878671;29;20478;-74
2021/09/29 01:26:15;;;;;;;6.23;5.63;;;12.40;99.90;;;;;;4878750;29;20463;-74
2021/09/29 01:28:46;;;;;;;7.73;6.23;;;12.40;99.90;;;;;;4878928;29;20815;-74
2021/09/29 01:31:15;;;;;;;7.50;6.20;;;12.40;99.90;;;;;;4878276;29;20559;-74
2021/09/29 01:33:44;;;;;;;6.78;6.00;;;12.40;99.90;;;;;;4878611;29;20230;-74
2021/09/29 01:36:11;;;;;;;8.15;5.95;;;12.40;99.90;;;;;;4878544;29;20207;-75
2021/09/29 01:38:40;;;;;;;9.70;6.50;;;12.40;99.90;;;;;;4878513;29;20210;-75
2021/09/29 01:41:08;;;;;;;7.13;5.80;;;12.40;99.90;;;;;;4878011;29;20471;-75
2021/09/29 01:43:36;;;;;;;6.10;5.60;;;12.30;99.90;;;;;;4878278;29;20498;-75
2021/09/29 01:46:05;;;;;;;6.10;5.50;;;12.40;99.90;;;;;;4878464;29;20219;-75
2021/09/29 01:48:32;;;;;;;6.60;5.90;;;12.40;99.90;;;;;;4878338;29;20471;-74
2021/09/29 01:51:01;;;;;;;6.93;6.30;;;12.40;99.90;;;;;;4877915;29;20322;-75
2021/09/29 01:53:33;;;;;;;7.83;6.33;;;12.40;99.90;;;;;;4878050;29;20475;-75
2021/09/29 01:56:00;;;;;;;8.30;5.90;;;12.40;99.90;;;;;;4877628;29;20845;-74
2021/09/29 01:58:31;;;;;;;7.03;5.90;;;12.30;99.90;;;;;;4878214;29;20476;-74
2021/09/29 02:00:59;;;;;;;9.32;6.47;;;12.30;99.90;;;;;;4877815;29;20463;-75
2021/09/29 02:03:26;;;;;;;7.20;6.30;;;12.30;99.90;;;;;;4877679;29;20433;-74
2021/09/29 02:05:53;;;;;;;8.88;6.43;;;12.30;99.90;;;;;;4878216;29;20566;-75
2021/09/29 02:08:20;;;;;;;7.80;6.22;;;12.30;99.90;;;;;;4877942;29;20207;-75
2021/09/29 02:10:47;;;;;;;6.65;6.05;;;12.30;99.90;;;;;;4877698;29;20207;-74
2021/09/29 02:13:14;;;;;;;6.97;5.70;;;12.20;99.90;;;;;;4877660;29;20922;-75
2021/09/29 02:15:40;;;;;;;7.67;5.97;;;12.20;99.90;;;;;;4878118;29;20207;-75
2021/09/29 02:18:09;;;;;;;6.07;5.47;;;12.20;99.90;;;;;;4877962;29;20468;-75
2021/09/29 02:20:35;;;;;;;6.87;6.20;;;12.20;99.90;;;;;;4877207;29;20498;-74
2021/09/29 02:23:02;;;;;;;7.37;5.90;;;12.20;99.90;;;;;;4877805;29;20459;-75
2021/09/29 02:25:29;;;;;;;8.57;6.50;;;12.20;99.90;;;;;;4877620;29;20837;-75
2021/09/29 02:27:56;;;;;;;7.80;6.70;;;12.10;99.90;;;;;;4877817;29;20234;-75
2021/09/29 02:30:22;;;;;;;6.97;6.20;;;12.10;99.90;;;;;;4877106;29;20468;-75
2021/09/29 02:32:49;;;;;;;7.38;6.68;;;12.10;99.90;;;;;;4877665;29;20211;-75
2021/09/29 02:35:18;;;;;;;6.40;5.63;;;12.10;99.90;;;;;;4877484;29;20828;-75
2021/09/29 02:37:44;;;;;;;7.97;5.80;;;12.10;99.90;;;;;;4877778;29;20471;-75
2021/09/29 02:40:12;;;;;;;7.65;6.03;;;12.10;99.90;;;;;;4876992;29;20857;-74
2021/09/29 02:42:39;;;;;;;6.68;5.50;;;12.20;99.90;;;;;;4877515;29;20211;-75
2021/09/29 02:45:06;;;;;;;6.83;5.60;;;12.20;99.90;;;;;;4877442;29;20238;-75
2021/09/29 02:47:33;;;;;;;7.63;6.18;;;12.10;99.90;;;;;;4877400;29;20467;-75
2021/09/29 02:50:00;;;;;;;5.97;5.47;;;12.20;99.90;;;;;;4877176;29;20203;-75
2021/09/29 02:52:28;;;;;;;6.60;4.82;;;12.10;99.90;;;;;;4877007;29;20849;-75
2021/09/29 02:54:55;;;;;;;6.87;5.50;;;12.10;99.90;;;;;;4877373;29;20238;-75
2021/09/29 02:57:21;;;;;;;7.78;5.95;;;12.10;99.90;;;;;;4877253;29;20467;-75
2021/09/29 02:59:48;;;;;;;6.27;5.20;;;12.10;99.90;;;;;;4877357;29;20227;-75
2021/09/29 03:02:15;;;;;;;8.95;5.35;;;12.10;99.90;;;;;;4876798;29;20468;-74
2021/09/29 03:04:42;;;;;;;7.93;6.22;;;12.10;99.90;;;;;;4876919;29;20253;-75
2021/09/29 03:07:08;;;;;;;6.93;5.75;;;12.10;99.90;;;;;;4877146;29;20214;-75
2021/09/29 03:09:36;;;;;;;5.93;5.40;;;12.10;99.90;;;;;;4877109;29;20211;-75
2021/09/29 03:12:04;;;;;;;7.03;6.20;;;12.00;99.90;;;;;;4876773;29;21120;-75
2021/09/29 03:14:30;;;;;;;7.10;6.40;;;12.10;99.90;;;;;;4876897;29;20238;-75
2021/09/29 03:16:57;;;;;;;10.38;5.80;;;12.10;99.90;;;;;;4877141;29;20203;-75
2021/09/29 03:19:24;;;;;;;6.55;5.90;;;12.10;99.90;;;;;;4876795;29;20227;-74
2021/09/29 03:21:51;;;;;;;6.13;5.47;;;12.00;99.90;;;;;;4876761;29;20210;-75
2021/09/29 03:24:20;;;;;;;6.97;6.03;;;12.00;99.90;;;;;;4876891;29;20227;-75
2021/09/29 03:26:49;;;;;;;8.97;6.47;;;12.00;99.90;;;;;;4877237;29;20905;-73
2021/09/29 03:29:16;;;;;;;8.90;6.30;;;11.90;99.90;;;;;;4877036;29;20471;-74
2021/09/29 03:31:42;;;;;;;7.07;6.03;;;11.90;99.90;;;;;;4876511;29;20204;-75
2021/09/29 03:34:09;;;;;;;11.43;6.07;;;11.90;99.90;;;;;;4876745;29;20511;-75
2021/09/29 03:36:36;;;;;;;7.80;5.73;;;11.90;99.90;;;;;;4876565;29;20210;-75
2021/09/29 03:39:03;;;;;;;8.80;5.53;;;11.90;99.90;;;;;;4885830;29;20470;-75
2021/09/29 03:41:32;;;;;;;8.35;5.97;;;11.80;99.90;;;;;;4883480;29;20473;-75
2021/09/29 03:44:00;;;;;;;7.50;6.80;;;11.80;99.90;;;;;;4884679;29;20219;-75
2021/09/29 03:46:27;;;;;;;7.63;6.13;;;11.80;99.90;;;;;;4884625;29;20470;-75
2021/09/29 03:48:53;;;;;;;7.22;6.53;;;11.80;99.90;;;;;;4886011;29;20841;-75
2021/09/29 03:51:20;;;;;;;8.30;5.40;;;11.80;99.90;;;;;;4883872;29;20230;-74
2021/09/29 03:53:47;;;;;;;6.90;5.80;;;11.80;99.90;;;;;;4884495;29;20225;-76
2021/09/29 03:56:14;;;;;;;6.00;5.35;;;11.80;99.90;;;;;;4885603;29;20466;-75
2021/09/29 03:58:41;;;;;;;10.90;5.65;;;11.80;99.90;;;;;;4884361;29;20207;-76
2021/09/29 04:01:09;;;;;;;5.70;4.63;;;11.90;99.90;;;;;;4885861;29;20246;-74
2021/09/29 04:03:35;;;;;;;8.75;5.22;;;11.90;99.90;;;;;;4893088;29;20593;-74
2021/09/29 04:06:02;;;;;;;7.33;5.53;;;11.90;99.90;;;;;;4884549;29;20218;-74
2021/09/29 04:08:29;;;;;;;7.10;5.22;;;11.90;99.90;;;;;;4884033;29;20473;-74
2021/09/29 04:10:56;;;;;;;6.80;5.07;;;11.90;99.90;;;;;;4885213;29;20195;-73
2021/09/29 04:13:23;;;;;;;5.78;5.22;;;11.90;99.90;;;;;;4888252;29;20470;-74
2021/09/29 04:15:50;;;;;;;7.80;4.85;;;11.90;99.90;;;;;;4885641;29;20219;-73
2021/09/29 04:18:18;;;;;;;6.95;6.22;;;11.90;99.90;;;;;;4885570;29;20587;-74
2021/09/29 04:20:45;;;;;;;7.88;5.38;;;12.00;99.90;;;;;;4886949;29;20220;-74
2021/09/29 04:23:17;;;;;;;5.50;4.83;;;11.90;99.90;;;;;;4887187;29;20203;-74
2021/09/29 04:25:43;;;;;;;5.57;4.57;;;11.90;99.90;;;;;;4887955;29;20474;-75
2021/09/29 04:28:10;;;;;;;6.72;4.75;;;12.00;99.90;;;;;;4887333;29;20206;-75
2021/09/29 04:30:37;;;;;;;5.43;4.93;;;12.00;99.90;;;;;;4881157;29;20225;-73
2021/09/29 04:33:04;;;;;;;5.40;4.90;;;11.90;99.90;;;;;;4879686;29;20218;-74
2021/09/29 04:35:32;;;;;;;7.53;4.95;;;11.90;99.90;;;;;;4879777;29;20390;-74
2021/09/29 04:38:02;;;;;;;4.63;4.20;;;11.90;99.90;;;;;;4880041;29;20207;-74
2021/09/29 04:40:29;;;;;;;4.78;4.38;;;11.90;99.90;;;;;;4878483;29;20227;-74
2021/09/29 04:42:56;;;;;;;6.53;4.20;;;12.00;99.90;;;;;;4879926;29;20211;-74
2021/09/29 04:45:23;;;;;;;4.70;4.30;;;12.00;99.90;;;;;;4879639;29;20490;-74
2021/09/29 04:47:50;;;;;;;6.33;4.23;;;11.90;99.90;;;;;;4879908;29;20467;-74
2021/09/29 04:50:18;;;;;;;5.50;5.00;;;11.90;99.90;;;;;;4879338;29;20494;-74
2021/09/29 04:52:46;;;;;;;6.95;4.50;;;11.90;99.90;;;;;;4879489;29;20471;-73
2021/09/29 04:55:13;;;;;;;7.80;4.80;;;11.90;99.90;;;;;;4879444;29;20231;-74
2021/09/29 04:57:40;;;;;;;5.90;4.50;;;11.80;99.90;;;;;;4879777;29;20471;-74
2021/09/29 05:00:07;;;;;;;6.57;4.47;;;11.80;99.90;;;;;;4879439;29;20594;-74
2021/09/29 05:02:35;;;;;;;6.95;4.03;;;11.70;99.90;;;;;;4879183;29;20211;-74
2021/09/29 05:05:01;;;;;;;4.78;4.20;;;11.60;99.90;;;;;;4879295;29;20239;-73
2021/09/29 05:07:30;;;;;;;4.40;4.00;;;11.70;99.90;;;;;;4879442;29;20620;-74
2021/09/29 05:09:58;;;;;;;3.77;3.47;;;11.60;99.90;;;;;;4879434;29;20207;-74
2021/09/29 05:12:30;;;;;;;4.40;4.10;;;11.60;99.90;;;;;;4878794;29;20467;-74
2021/09/29 05:14:58;;;;;;;5.95;4.18;;;11.60;99.90;;;;;;4879285;29;20325;-76
2021/09/29 05:17:26;;;;;;;5.07;4.10;;;11.60;99.90;;;;;;4879072;29;20218;-76
2021/09/29 05:19:53;;;;;;;4.70;4.00;;;11.60;99.90;;;;;;4879423;29;20475;-75
2021/09/29 05:22:19;;;;;;;5.90;3.77;;;11.60;99.90;;;;;;4878855;29;20471;-76
2021/09/29 05:24:46;;;;;;;5.53;4.73;;;11.60;99.90;;;;;;4879282;29;20890;-75
2021/09/29 05:27:14;;;;;;;6.40;4.00;;;11.60;99.90;;;;;;4878876;29;20463;-76
2021/09/29 05:29:45;;;;;;;5.53;4.50;;;11.60;99.90;;;;;;4879093;29;20214;-76
2021/09/29 05:32:11;;;;;;;4.60;4.00;;;11.60;99.90;;;;;;4877444;29;20234;-75
2021/09/29 05:34:38;;;;;;;5.05;4.30;;;11.50;99.90;;;;;;4878924;29;20494;-75
2021/09/29 05:37:05;;;;;;;4.78;4.38;;;11.50;99.90;;;;;;4879117;29;20207;-75
2021/09/29 05:39:32;;;;;;;7.50;4.70;;;11.50;99.90;;;;;;4878764;29;20216;-75
2021/09/29 05:42:00;;;;;;;5.35;4.00;;;11.50;99.90;;;;;;4878261;29;20718;-75
2021/09/29 05:44:28;;;;;;;4.35;3.95;;;11.50;99.90;;;;;;4878510;29;20283;-75
2021/09/29 05:46:55;;;;;;;6.83;4.50;;;11.50;99.90;;;;;;4878769;29;20219;-76
2021/09/29 05:49:21;;;;;;;4.50;3.80;;;11.40;99.90;;;;;;4878606;29;20482;-75
2021/09/29 05:51:48;;;;;;;4.95;4.13;;;11.40;99.90;;;;;;4878199;29;20206;-76
2021/09/29 05:54:15;;;;;;;5.22;4.20;;;11.40;99.90;;;;;;4878471;29;20583;-75
2021/09/29 05:56:41;;;;;;;5.00;4.50;;;11.40;99.90;;;;;;4878672;29;20239;-74
2021/09/29 05:59:08;;;;;;;5.38;4.40;;;11.40;99.90;;;;;;4878559;29;20210;-75
2021/09/29 06:01:36;;;;;;;5.60;4.30;;;11.50;99.90;;;;;;4877871;29;20254;-75
2021/09/29 06:04:03;;;;;;;5.75;4.00;;;11.50;99.90;;;;;;4878224;29;20238;-76
2021/09/29 06:06:30;;;;;;;4.80;4.30;;;11.40;99.90;;;;;;4878622;29;20694;-75
2021/09/29 06:08:56;;;;;;;6.07;4.80;;;11.50;99.90;;;;;;4878432;29;20215;-74
2021/09/29 06:11:23;;;;;;;6.53;4.32;;;11.50;99.90;;;;;;4878004;29;20672;-75
2021/09/29 06:13:50;;;;;;;6.30;4.68;;;11.60;99.90;;;;;;4878269;29;20597;-75
2021/09/29 06:16:17;;;;;;;5.57;4.95;;;11.60;99.90;;;;;;4878199;29;20767;-75
2021/09/29 06:18:47;;;;;;;6.80;4.80;;;11.70;99.90;;;;;;4878280;29;20218;-75
2021/09/29 06:21:17;;;;;;;5.57;4.50;;;11.70;99.90;;;;;;4877701;29;20227;-75
2021/09/29 06:23:44;;;;;;;6.80;5.00;;;11.80;99.90;;;;;;4878057;29;20487;-75
2021/09/29 06:26:11;;;;;;;6.05;5.20;;;11.80;99.90;;;;;;4878026;29;20212;-75
2021/09/29 06:28:38;;;;;;;5.50;5.00;;;11.90;99.90;;;;;;4878093;29;20214;-75
2021/09/29 06:31:06;;;;;;;9.00;4.77;;;11.90;99.90;;;;;;4877671;29;20207;-76
2021/09/29 06:33:33;;;;;;;7.20;4.73;;;11.90;99.90;;;;;;4878112;29;20514;-76
2021/09/29 06:36:01;;;;;;;5.70;5.10;;;12.00;99.90;;;;;;4877970;29;20478;-75
2021/09/29 06:38:28;;;;;;;6.07;4.77;;;12.00;99.90;;;;;;4877738;29;20932;-75
2021/09/29 06:40:54;;;;;;;6.65;5.40;;;12.10;99.90;;;;;;4877414;29;20494;-75
2021/09/29 06:43:21;;;;;;;5.90;5.10;;;12.00;99.90;;;;;;4877177;29;20706;-75
2021/09/29 06:45:48;;;;;;;10.73;5.00;;;12.10;99.90;;;;;;4877845;29;20494;-75
2021/09/29 06:48:16;;;;;;;6.13;4.50;;;12.20;99.90;;;;;;4878023;29;20928;-75
2021/09/29 06:50:42;;;;;;;9.07;5.40;;;12.30;99.90;;;;;;4877139;29;20523;-75
2021/09/29 06:53:17;;;;;;;5.57;4.50;;;12.50;99.90;;;;;;4877698;29;20890;-75
2021/09/29 06:55:44;;;;;;;4.80;4.40;;;12.70;99.90;;;;;;4877817;29;20473;-74
2021/09/29 06:58:10;;;;;;;6.60;4.60;;;12.90;99.90;;;;;;4877489;29;20474;-75
2021/09/29 07:00:37;;;;;;;7.40;4.80;;;13.10;99.90;;;;;;4876970;29;20491;-76
2021/09/29 07:03:05;;;;;;;3.87;3.53;;;13.40;99.90;;;;;;4877607;29;20530;-76
2021/09/29 07:05:32;;;;;;;3.53;3.23;;;13.70;99.90;;;;;;4972201;23;20872;-72
2021/09/29 07:07:59;;;;;;;5.77;3.83;;;14.00;99.90;;;;;;4895941;29;20474;-72
2021/09/29 07:10:28;;;;;;;3.83;2.90;;;14.40;99.90;;;;;;4896009;29;20498;-72
2021/09/29 07:12:57;;;;;;;3.60;2.90;;;14.60;99.90;;;;;;4895521;29;20474;-72
2021/09/29 07:15:24;;;;;;;4.83;3.20;;;14.80;99.90;;;;;;4879066;29;20495;-72
2021/09/29 07:17:57;;;;;;;3.70;2.50;;;15.00;99.90;;;;;;4877445;29;21202;-71
2021/09/29 07:20:24;;;;;;;3.80;2.80;;;15.10;99.90;;;;;;4877173;29;20495;-72
2021/09/29 07:22:51;;;;;;;3.20;2.57;;;15.30;99.90;;;;;;4876977;29;20995;-71
2021/09/29 07:25:18;;;;;;;3.50;2.47;;;15.40;99.90;;;;;;4877047;29;20503;-72
2021/09/29 07:27:46;;;;;;;4.20;2.30;;;15.60;99.90;;;;;;4877089;29;20887;-72
2021/09/29 07:30:13;;;;;;;3.57;2.63;;;15.70;99.90;;;;;;4877251;29;20479;-72
2021/09/29 07:32:40;;;;;;;4.43;2.07;;;15.90;99.90;;;;;;4876632;29;20467;-72
2021/09/29 07:35:08;;;;;;;3.07;2.40;;;15.90;99.90;;;;;;4877168;29;20826;-72
2021/09/29 07:37:34;;;;;;;2.60;2.03;;;15.80;99.90;;;;;;4877003;29;21019;-72
2021/09/29 07:40:01;;;;;;;3.23;2.00;;;15.60;99.90;;;;;;4877099;29;20477;-72
2021/09/29 07:42:28;;;;;;;3.77;1.80;;;15.40;99.90;;;;;;4876457;29;20491;-72
2021/09/29 07:44:56;;;;;;;2.37;2.17;;;15.40;99.90;;;;;;4877138;29;20487;-72
2021/09/29 07:47:23;;;;;;;2.90;2.20;;;15.50;99.90;;;;;;4876992;29;20836;-72
2021/09/29 07:49:49;;;;;;;2.47;1.90;;;15.70;99.90;;;;;;4877008;29;20468;-72
2021/09/29 07:52:16;;;;;;;2.97;1.70;;;15.80;99.90;;;;;;4876682;29;20482;-72
2021/09/29 07:54:43;;;;;;;2.00;1.80;;;15.90;99.90;;;;;;4878368;29;20498;-72
2021/09/29 07:57:09;;;;;;;2.20;1.60;;;16.00;99.90;;;;;;4880768;29;20526;-71
2021/09/29 07:59:36;;;;;;;2.43;1.90;;;16.10;99.90;;;;;;4880504;29;20467;-72
2021/09/29 08:02:04;;;;;;;3.10;1.60;;;16.30;99.90;;;;;;4880172;29;20495;-72
2021/09/29 08:04:31;;;;;;;2.17;1.70;;;16.50;99.90;;;;;;4880251;29;20499;-72
2021/09/29 08:06:58;;;;;;;8.97;1.93;;;16.80;99.90;;;;;;4880579;29;20872;-72
2021/09/29 08:09:25;;;;;;;1.50;1.33;;;17.00;99.90;;;;;;4880642;29;20463;-72
2021/09/29 08:11:51;;;;;;;3.47;1.70;;;17.20;99.90;;;;;;4880093;29;20459;-72
2021/09/29 08:14:19;;;;;;;3.40;1.90;;;17.20;99.90;;;;;;4880254;29;21026;-72
2021/09/29 08:16:46;;;;;;;2.70;2.03;;;17.20;99.90;;;;;;4880319;29;20463;-70
2021/09/29 08:19:15;;;;;;;4.67;2.00;;;17.20;99.90;;;;;;4880441;29;20463;-72
2021/09/29 08:21:44;;;;;;;2.50;2.20;;;17.20;99.90;;;;;;4879696;29;20527;-71
2021/09/29 08:24:14;;;;;;;5.33;1.60;;;17.30;99.90;;;;;;4880406;29;20483;-72
2021/09/29 08:26:53;;;;;;;3.17;1.60;;;17.50;99.90;;;;;;4880014;29;20471;-72
2021/09/29 08:29:34;;;;;;;3.07;1.50;;;17.50;99.90;;;;;;4880164;29;20467;-72
2021/09/29 08:32:22;;;;;;;3.43;1.70;;;17.50;99.90;;;;;;4879867;29;20466;-72
2021/09/29 08:35:00;;;;;;;3.00;1.80;;;17.70;99.90;;;;;;4880056;29;20495;-72
2021/09/29 08:37:35;;;;;;;2.53;1.40;;;17.60;99.90;;;;;;4879920;29;21058;-72
2021/09/29 08:40:12;;;;;;;2.57;1.60;;;17.70;99.90;;;;;;4879943;29;20570;-71
2021/09/29 08:42:45;;;;;;;2.43;1.50;;;17.90;99.90;;;;;;4879233;29;20590;-69
2021/09/29 08:45:16;;;;;;;4.93;1.50;;;18.10;99.90;;;;;;4879728;29;20550;-69
2021/09/29 08:47:50;;;;;;;5.07;1.50;;;18.40;99.90;;;;;;4879696;29;20566;-70
2021/09/29 08:50:25;;;;;;;2.60;1.70;;;18.50;99.90;;;;;;4879740;29;20522;-70
2021/09/29 08:53:27;;;;;;;3.60;1.43;;;18.50;99.90;;;;;;4879470;29;20523;-70
2021/09/29 09:15:39;;;;;;;2.83;1.40;;;18.50;99.90;;;;;;4879467;29;20471;-70
2021/09/29 09:18:06;;;;;;;2.10;1.60;;;18.80;99.90;;;;;;4879559;29;20467;-69
2021/09/29 09:20:35;;;;;;;1.20;1.10;;;19.00;99.90;;;;;;4879015;29;20482;-68
2021/09/29 09:23:04;;;;;;;2.10;1.30;;;19.10;99.90;;;;;;4878964;29;20499;-70
2021/09/29 09:25:36;;;;;;;2.00;1.77;;;19.10;99.90;;;;;;4878873;29;20487;-69
2021/09/29 09:28:04;;;;;;;4.27;1.80;;;19.20;99.90;;;;;;4879093;29;20474;-70
2021/09/29 09:30:32;;;;;;;2.30;1.77;;;19.30;99.90;;;;;;4879062;29;20472;-70
2021/09/29 09:32:59;;;;;;;3.00;1.43;;;19.40;99.90;;;;;;4878794;29;20498;-68
2021/09/29 09:35:30;;;;;;;2.50;1.60;;;19.30;99.90;;;;;;4878958;29;20491;-72
2021/09/29 09:37:58;;;;;;;4.00;1.87;;;19.10;99.90;;;;;;4879044;29;20467;-72
2021/09/29 09:40:29;;;;;;;3.87;1.43;;;19.10;99.90;;;;;;4878806;29;20471;-72
2021/09/29 09:42:57;;;;;;;3.67;1.57;;;19.10;99.90;;;;;;4878489;29;20503;-71
2021/09/29 09:45:40;;;;;;;1.90;1.40;;;19.00;99.90;;;;;;4878689;29;20475;-72
2021/09/29 09:48:15;;;;;;;2.70;1.50;;;18.60;99.90;;;;;;4878863;29;20514;-72
2021/09/29 09:50:42;;;;;;;2.70;1.70;;;18.30;99.90;;;;;;4878558;29;20467;-72
2021/09/29 09:53:12;;;;;;;6.20;1.87;;;18.00;99.90;;;;;;4878448;29;20905;-70
2021/09/29 09:55:41;;;;;;;3.00;1.47;;;17.70;99.90;;;;;;4878690;29;20467;-69
2021/09/29 09:58:07;;;;;;;1.40;1.30;;;17.60;99.90;;;;;;4878647;29;20494;-69
2021/09/29 10:00:36;;;;;;;3.60;1.83;;;17.50;99.90;;;;;;4878327;29;20463;-69
2021/09/29 10:03:03;;;;;;;2.40;1.33;;;17.60;99.90;;;;;;4878348;29;20492;-70
2021/09/29 10:05:30;;;;;;;1.63;1.10;;;18.10;99.90;;;;;;4878141;29;20499;-69
2021/09/29 10:07:59;;;;;;;3.00;1.30;;;18.40;99.90;;;;;;4878624;29;20467;-69
2021/09/29 10:10:29;;;;;;;2.23;1.20;;;18.60;99.90;;;;;;4878137;29;20471;-70
2021/09/29 10:13:19;;;;;;;2.40;1.20;;;19.00;99.90;;;;;;4878154;29;20907;-71
2021/09/29 10:26:07;;;;;;;2.83;1.37;;;20.80;99.90;;;;;;4877914;29;20639;-72
2021/09/29 10:27:09;;;;;;;1.87;1.50;;;20.70;99.90;;;;;;4877858;29;20835;-72
2021/09/29 10:29:44;;;;;;;2.57;1.47;;;20.40;99.90;;;;;;4877934;29;20470;-72
2021/09/29 10:32:17;;;;;;;4.70;1.17;;;19.90;99.90;;;;;;4877555;29;20574;-71
2021/09/29 10:35:00;;;;;;;4.20;1.50;;;19.40;99.90;;;;;;4877654;29;20550;-70
2021/09/29 10:37:53;;;;;;;1.90;1.17;;;18.90;99.90;;;;;;4877814;29;20463;-72
2021/09/29 10:43:24;;;;;;;3.00;1.53;;;18.10;99.90;;;;;;4833204;29;20490;-72
2021/09/29 10:46:06;;;;;;;2.90;1.40;;;17.80;99.90;;;;;;4877566;29;20908;-71
2021/09/29 10:48:47;;;;;;;4.93;1.63;;;17.60;99.90;;;;;;4878119;29;20471;-72
2021/09/29 11:06:02;;;;;;;1.60;1.30;;;17.20;99.90;;;;;;4877515;29;20483;-70
2021/09/29 11:09:07;;;;;;;1.87;1.07;;;17.10;99.90;;;;;;4877505;29;20472;-71
2021/09/29 11:28:41;;;;;;;2.13;1.10;;;17.60;99.90;;;;;;4878130;29;20955;-70
2021/09/29 11:31:12;;;;;;;2.43;1.53;;;18.50;99.90;;;;;;4880797;29;20467;-71
2021/09/29 11:33:41;;;;;;;4.10;1.20;;;19.30;99.90;;;;;;4881008;29;20906;-72
2021/09/29 11:36:25;;;;;;;4.43;1.40;;;19.80;99.90;;;;;;4881142;29;20475;-72
2021/09/29 11:50:21;;;;;;;2.90;1.47;;;19.30;99.90;;;;;;4881111;29;20490;-69
2021/09/29 12:09:33;;;;;;;3.50;1.30;;;18.90;99.90;;;;;;4880709;29;20458;-71
2021/09/29 12:12:19;;;;;;;2.50;1.00;;;18.80;99.90;;;;;;4880131;29;20470;-72
2021/09/29 12:14:47;;;;;;;2.43;1.10;;;19.20;99.90;;;;;;4880334;29;20906;-72
2021/09/29 12:17:19;;;;;;;2.17;1.20;;;19.70;99.90;;;;;;4880639;29;20491;-72
2021/09/29 12:19:52;;;;;;;1.37;1.00;;;20.00;99.90;;;;;;4880820;29;20467;-72
2021/09/29 12:22:20;;;;;;;3.77;1.30;;;20.00;99.90;;;;;;4879863;29;20491;-72
2021/09/29 12:24:52;;;;;;;3.70;1.23;;;20.20;99.90;;;;;;4880095;29;20487;-72
2021/09/29 12:27:23;;;;;;;2.33;0.97;;;20.80;99.90;;;;;;4880228;29;21031;-71
2021/09/29 12:29:52;;;;;;;3.27;1.20;;;21.10;99.90;;;;;;4880149;29;20471;-72
2021/09/29 12:32:45;;;;;;;3.93;1.10;;;21.30;99.90;;;;;;4879751;29;20511;-73
2021/09/29 12:35:22;;;;;;;2.47;0.90;;;21.60;99.90;;;;;;4880065;29;20491;-71
2021/09/29 12:37:56;;;;;;;1.77;1.20;;;21.80;99.90;;;;;;4879986;29;21034;-72
2021/09/29 12:40:27;;;;;;;2.33;1.30;;;21.50;99.90;;;;;;4879358;29;20501;-71
2021/09/29 12:42:59;;;;;;;1.50;1.37;;;20.90;99.90;;;;;;4879333;29;20495;-72
2021/09/29 12:45:27;;;;;;;1.70;1.20;;;20.30;99.90;;;;;;4879863;29;20489;-72
2021/09/29 12:47:54;;;;;;;2.03;1.30;;;19.80;99.90;;;;;;4879626;29;20475;-72
2021/09/29 12:50:26;;;;;;;2.30;1.30;;;19.60;99.90;;;;;;4879784;29;20531;-72
2021/09/29 12:52:58;;;;;;;1.57;1.00;;;19.30;99.90;;;;;;4879218;29;20468;-71
2021/09/29 12:55:33;;;;;;;2.20;1.43;;;19.10;99.90;;;;;;4879607;29;20488;-72
2021/09/29 12:58:00;;;;;;;2.30;1.20;;;18.90;99.90;;;;;;4879768;29;20823;-71
2021/09/29 13:00:27;;;;;;;2.43;1.33;;;18.80;99.90;;;;;;4879651;29;20467;-71
2021/09/29 13:02:54;;;;;;;2.57;1.10;;;18.60;99.90;;;;;;4878891;29;20487;-72
2021/09/29 13:05:20;;;;;;;3.00;1.17;;;18.60;99.90;;;;;;4948934;23;20502;-68
2021/09/29 13:07:47;;;;;;;1.83;1.13;;;18.70;99.90;;;;;;4891136;29;20469;-69
2021/09/29 13:10:14;;;;;;;2.00;1.30;;;18.80;99.90;;;;;;4898144;29;20537;-69
2021/09/29 13:12:42;;;;;;;2.50;1.33;;;19.10;99.90;;;;;;4897980;29;20963;-69
2021/09/29 13:15:10;;;;;;;1.87;1.00;;;19.40;99.90;;;;;;4898092;29;20493;-69
2021/09/29 13:17:37;;;;;;;4.27;1.30;;;19.90;99.90;;;;;;4898355;29;20474;-69
2021/09/29 13:20:06;;;;;;;1.50;1.10;;;20.10;99.90;;;;;;4898053;29;20587;-69
2021/09/29 13:22:36;;;;;;;1.73;1.07;;;20.00;99.90;;;;;;4897689;29;20490;-69
2021/09/29 13:25:31;;;;;;;2.47;1.43;;;19.60;99.90;;;;;;4897917;29;20482;-69
2021/09/29 13:36:37;;;;;;;2.33;1.23;;;18.10;99.90;;;;;;4897844;29;20482;-69
2021/09/29 13:39:09;;;;;;;2.90;1.47;;;17.70;99.90;;;;;;4897840;29;20544;-69
2021/09/29 13:41:36;;;;;;;2.43;1.50;;;17.60;99.90;;;;;;4897662;29;20731;-69
2021/09/29 13:44:06;;;;;;;4.07;2.23;;;17.40;99.90;;;;;;4897485;29;20501;-69
2021/09/29 13:46:33;;;;;;;1.80;1.37;;;17.30;99.90;;;;;;4897890;29;20503;-69
2021/09/29 13:49:01;;;;;;;3.90;1.60;;;17.00;99.90;;;;;;4897658;29;20489;-69
2021/09/29 13:51:29;;;;;;;2.50;1.70;;;16.80;99.90;;;;;;4896948;29;20474;-69
2021/09/29 13:53:57;;;;;;;3.13;1.77;;;16.70;99.90;;;;;;4897176;29;20491;-69
2021/09/29 13:56:28;;;;;;;2.83;1.60;;;16.60;99.90;;;;;;4897458;29;20985;-69
2021/09/29 14:29:17;;;;;;;2.13;1.13;;;15.70;99.90;;;;;;4896882;29;20498;-68
2021/09/29 14:31:50;;;;;;;1.20;1.10;;;15.60;99.90;;;;;;4896731;29;20906;-68
2021/09/29 14:34:18;;;;;;;2.90;1.57;;;15.40;99.90;;;;;;4896772;29;20487;-68
2021/09/29 14:36:45;;;;;;;3.73;1.20;;;15.30;99.90;;;;;;4897013;29;20466;-68
2021/09/29 14:39:12;;;;;;;3.10;1.00;;;15.10;99.90;;;;;;4896565;29;20489;-68
2021/09/29 14:41:40;;;;;;;2.10;0.90;;;14.90;99.90;;;;;;4896182;29;20470;-68
2021/09/29 14:44:06;;;;;;;1.23;0.80;;;14.70;99.90;;;;;;4896256;29;20498;-68
2021/09/29 14:46:33;;;;;;;0.97;0.87;;;14.60;99.90;;;;;;4896690;29;20466;-68
2021/09/29 14:49:00;;;;;;;2.20;1.27;;;14.40;99.90;;;;;;4896573;29;20467;-68
2021/09/29 14:51:28;;;;;;;1.30;1.13;;;14.20;99.90;;;;;;4896320;29;20467;-68
2021/09/29 14:53:56;;;;;;;1.60;1.00;;;14.10;99.90;;;;;;4896438;29;20513;-68
2021/09/29 14:56:23;;;;;;;1.00;0.80;;;14.00;99.90;;;;;;4897660;29;20477;-68
2021/09/29 14:58:50;;;;;;;2.17;1.37;;;13.90;99.90;;;;;;4899405;29;20494;-69
2021/09/29 15:01:17;;;;;;;2.20;1.10;;;13.90;99.90;;;;;;4899132;29;20760;-69
2021/09/29 15:03:46;;;;;;;1.73;0.93;;;13.90;99.90;;;;;;4897321;29;20507;-69
2021/09/29 15:06:13;;;;;;;2.07;1.13;;;13.80;99.90;;;;;;4869528;29;20569;-68